createdAt,value
2023-05-09T00:00:54.293Z,101977.00
2023-05-09T00:03:21.342Z,101976.25
2023-05-09T00:05:49.056Z,101978.44
2023-05-09T00:08:16.177Z,101978.75
2023-05-09T00:10:43.586Z,101982.28
2023-05-09T00:13:10.736Z,101979.59
2023-05-09T00:15:37.986Z,101976.09
2023-05-09T00:18:05.173Z,101976.81
2023-05-09T00:20:34.215Z,101970.84
2023-05-09T00:23:01.202Z,101975.53
2023-05-09T00:25:28.531Z,101973.72
2023-05-09T00:27:55.536Z,101969.91
2023-05-09T00:30:22.524Z,101962.88
2023-05-09T00:32:49.713Z,101954.66
2023-05-09T00:35:17.071Z,101960.47
2023-05-09T00:37:44.163Z,101960.94
2023-05-09T00:40:11.738Z,101952.81
2023-05-09T00:42:38.792Z,101955.38
2023-05-09T00:45:07.225Z,101955.00
2023-05-09T00:47:34.985Z,101946.38
2023-05-09T00:50:02.637Z,101946.59
2023-05-09T00:52:30.366Z,101931.19
2023-05-09T00:54:57.221Z,101928.84
2023-05-09T00:57:42.481Z,101931.16
2023-05-09T01:00:29.541Z,101921.31
2023-05-09T01:03:16.679Z,101924.44
2023-05-09T01:05:55.201Z,101919.09
2023-05-09T01:08:37.781Z,101910.88
2023-05-09T01:11:23.307Z,101908.19
2023-05-09T01:14:13.868Z,101911.56
2023-05-09T01:17:14.731Z,101910.19
2023-05-09T01:19:57.243Z,101901.56
2023-05-09T01:22:30.434Z,101902.66
2023-05-09T01:24:57.408Z,101904.59
2023-05-09T01:27:33.347Z,101903.13
2023-05-09T01:30:04.804Z,101895.69
2023-05-09T01:32:35.691Z,101898.34
2023-05-09T01:35:05.362Z,101897.28
2023-05-09T01:37:35.803Z,101890.97
2023-05-09T01:40:30.743Z,101885.91
2023-05-09T01:43:05.684Z,101891.19
2023-05-09T01:45:34.382Z,101884.25
2023-05-09T01:48:02.607Z,101886.00
2023-05-09T01:50:30.902Z,101881.84
2023-05-09T01:53:00.434Z,101881.84
2023-05-09T01:55:29.423Z,101882.56
2023-05-09T01:57:59.080Z,101881.50
2023-05-09T02:00:27.314Z,101872.34
2023-05-09T02:02:56.336Z,101868.66
2023-05-09T02:05:28.426Z,101872.59
2023-05-09T02:07:59.776Z,101864.06
2023-05-09T02:10:30.905Z,101857.72
2023-05-09T02:12:58.157Z,101861.44
2023-05-09T02:15:26.365Z,101859.06
2023-05-09T02:17:53.447Z,101860.66
2023-05-09T02:20:20.535Z,101860.66
2023-05-09T02:22:48.156Z,101864.75
2023-05-09T02:25:15.829Z,101854.31
2023-05-09T02:27:47.145Z,101857.47
2023-05-09T02:30:23.582Z,101860.47
2023-05-09T02:32:53.722Z,101853.72
2023-05-09T02:35:23.116Z,101853.50
2023-05-09T02:37:50.144Z,101848.41
2023-05-09T02:40:18.470Z,101855.22
2023-05-09T02:42:45.548Z,101855.31
2023-05-09T02:45:12.583Z,101854.78
2023-05-09T02:47:39.871Z,101847.94
2023-05-09T02:50:07.420Z,101845.50
2023-05-09T02:52:34.536Z,101846.34
2023-05-09T02:55:03.605Z,101839.44
2023-05-09T02:57:31.162Z,101834.84
2023-05-09T02:59:58.153Z,101837.28
2023-05-09T03:02:25.183Z,101832.41
2023-05-09T03:04:52.437Z,101834.22
2023-05-09T03:07:19.414Z,101833.38
2023-05-09T03:09:46.365Z,101826.47
2023-05-09T03:12:13.310Z,101829.34
2023-05-09T03:14:40.391Z,101830.41
2023-05-09T03:17:07.426Z,101825.75
2023-05-09T03:19:34.415Z,101830.00
2023-05-09T03:22:01.486Z,101825.84
2023-05-09T03:24:28.479Z,101820.53
2023-05-09T03:26:55.552Z,101822.25
2023-05-09T03:29:22.545Z,101818.53
2023-05-09T03:31:49.649Z,101828.47
2023-05-09T03:34:16.693Z,101829.44
2023-05-09T03:36:44.467Z,101833.16
2023-05-09T03:39:11.782Z,101833.25
2023-05-09T03:41:38.786Z,101827.59
2023-05-09T03:44:06.049Z,101822.50
2023-05-09T03:46:33.049Z,101832.63
2023-05-09T03:49:00.027Z,101829.53
2023-05-09T03:51:27.117Z,101835.19
2023-05-09T03:53:54.047Z,101831.66
2023-05-09T03:56:21.109Z,101827.06
2023-05-09T03:58:48.456Z,101816.19
2023-05-09T04:01:16.025Z,101815.03
2023-05-09T04:03:43.291Z,101815.03
2023-05-09T04:06:10.371Z,101801.69
2023-05-09T04:08:37.481Z,101799.34
2023-05-09T04:11:04.469Z,101802.22
2023-05-09T04:13:33.136Z,101796.69
2023-05-09T04:16:00.172Z,101799.25
2023-05-09T04:18:27.254Z,101799.03
2023-05-09T04:20:54.351Z,101796.13
2023-05-09T04:23:21.330Z,101798.28
2023-05-09T04:25:51.477Z,101798.75
2023-05-09T04:28:18.435Z,101798.41
2023-05-09T04:30:45.951Z,101798.75
2023-05-09T04:33:13.278Z,101800.78
2023-05-09T04:35:41.384Z,101794.78
2023-05-09T04:38:08.546Z,101794.00
2023-05-09T04:40:35.789Z,101793.66
2023-05-09T04:43:03.426Z,101791.22
2023-05-09T04:45:30.481Z,101777.69
2023-05-09T04:47:57.552Z,101768.97
2023-05-09T04:50:24.858Z,101777.16
2023-05-09T04:52:51.880Z,101776.63
2023-05-09T04:55:18.821Z,101773.31
2023-05-09T04:57:45.797Z,101774.66
2023-05-09T05:00:13.355Z,101763.91
2023-05-09T05:02:40.345Z,101760.78
2023-05-09T05:05:12.021Z,101756.84
2023-05-09T05:07:39.783Z,101754.78
2023-05-09T05:10:07.233Z,101748.66
2023-05-09T05:12:34.386Z,101749.41
2023-05-09T05:15:01.343Z,101749.69
2023-05-09T05:17:29.747Z,101745.81
2023-05-09T05:19:56.838Z,101752.78
2023-05-09T05:22:24.446Z,101747.94
2023-05-09T05:24:51.438Z,101744.84
2023-05-09T05:27:18.527Z,101740.94
2023-05-09T05:29:45.524Z,101739.81
2023-05-09T05:32:12.702Z,101745.56
2023-05-09T05:34:39.892Z,101744.59
2023-05-09T05:37:06.845Z,101746.06
2023-05-09T05:39:33.950Z,101739.66
2023-05-09T05:42:00.894Z,101737.72
2023-05-09T05:44:27.839Z,101732.03
2023-05-09T05:46:54.859Z,101736.53
2023-05-09T05:49:21.996Z,101735.06
2023-05-09T05:51:48.998Z,101732.13
2023-05-09T05:54:15.928Z,101734.94
2023-05-09T05:56:42.948Z,101726.22
2023-05-09T05:59:11.347Z,101725.38
2023-05-09T06:01:40.170Z,101722.72
2023-05-09T06:04:07.321Z,101723.06
2023-05-09T06:06:34.734Z,101722.97
2023-05-09T06:09:01.673Z,101723.69
2023-05-09T06:11:29.130Z,101723.34
2023-05-09T06:13:56.214Z,101718.22
2023-05-09T06:16:23.386Z,101713.50
2023-05-09T06:18:50.946Z,101719.00
2023-05-09T06:21:18.819Z,101711.50
2023-05-09T06:26:15.954Z,101704.84
2023-05-09T06:28:42.931Z,101707.28
2023-05-09T06:31:10.047Z,101697.94
2023-05-09T06:33:37.144Z,101692.47
2023-05-09T06:36:04.397Z,101697.56
2023-05-09T06:38:31.434Z,101691.38
2023-05-09T06:40:58.428Z,101687.25
2023-05-09T06:43:25.356Z,101683.63
2023-05-09T06:45:52.533Z,101675.16
2023-05-09T06:48:19.551Z,101675.53
2023-05-09T06:50:46.683Z,101675.75
2023-05-09T06:53:13.822Z,101678.44
2023-05-09T06:55:41.083Z,101673.56
2023-05-09T06:58:08.144Z,101666.63
2023-05-09T07:00:35.807Z,101666.28
2023-05-09T07:03:02.940Z,101665.16
2023-05-09T07:05:30.114Z,101661.66
2023-05-09T07:07:57.201Z,101653.78
2023-05-09T07:10:24.516Z,101648.53
2023-05-09T07:12:51.774Z,101638.81
2023-05-09T07:15:28.644Z,101650.44
2023-05-09T07:17:59.783Z,101641.06
2023-05-09T07:20:26.839Z,101642.50
2023-05-09T07:22:53.837Z,101642.97
2023-05-09T07:25:20.964Z,101645.00
2023-05-09T07:27:47.963Z,101634.25
2023-05-09T07:30:15.293Z,101634.34
2023-05-09T07:32:42.444Z,101626.06
2023-05-09T07:35:09.430Z,101616.56
2023-05-09T07:37:36.892Z,101612.66
2023-05-09T07:40:06.125Z,101612.94
2023-05-09T07:42:33.354Z,101601.59
2023-05-09T07:45:00.547Z,101609.84
2023-05-09T07:47:27.673Z,101602.13
2023-05-09T07:49:54.677Z,101607.88
2023-05-09T07:52:21.691Z,101596.78
2023-05-09T07:54:48.858Z,101595.16
2023-05-09T07:57:16.678Z,101597.53
2023-05-09T07:59:43.672Z,101586.72
2023-05-09T08:02:10.982Z,101583.47
2023-05-09T08:04:38.960Z,101576.03
2023-05-09T08:07:07.432Z,101578.03
2023-05-09T08:09:34.783Z,101567.63
2023-05-09T08:12:01.776Z,101567.22
2023-05-09T08:14:29.110Z,101566.38
2023-05-09T08:16:56.123Z,101562.84
2023-05-09T08:19:26.380Z,101561.75
2023-05-09T08:21:53.573Z,101549.88
2023-05-09T08:24:20.675Z,101547.94
2023-05-09T08:26:47.702Z,101540.91
2023-05-09T08:29:14.929Z,101551.91
2023-05-09T08:31:42.153Z,101542.34
2023-05-09T08:34:09.599Z,101530.09
2023-05-09T08:36:36.600Z,101536.19
2023-05-09T08:39:03.714Z,101530.06
2023-05-09T08:41:36.245Z,101538.97
2023-05-09T08:44:04.333Z,101530.22
2023-05-09T08:46:36.936Z,101529.38
2023-05-09T08:49:07.425Z,101534.06
2023-05-09T08:51:36.032Z,101532.81
2023-05-09T08:54:03.590Z,101534.34
2023-05-09T08:56:31.692Z,101519.09
2023-05-09T08:58:59.196Z,101511.63
2023-05-09T09:01:29.538Z,101517.13
2023-05-09T09:03:56.711Z,101506.81
2023-05-09T09:06:25.922Z,101500.75
2023-05-09T09:08:55.171Z,101505.69
2023-05-09T09:11:22.911Z,101495.50
2023-05-09T09:13:52.944Z,101496.06
2023-05-09T09:16:23.138Z,101487.03
2023-05-09T09:18:52.423Z,101478.69
2023-05-09T09:21:20.482Z,101478.25
2023-05-09T09:23:49.000Z,101483.19
2023-05-09T09:26:16.649Z,101486.56
2023-05-09T09:28:43.895Z,101471.84
2023-05-09T09:31:28.582Z,101466.34
2023-05-09T09:34:03.332Z,101455.75
2023-05-09T09:36:32.604Z,101448.78
2023-05-09T09:39:01.247Z,101447.66
2023-05-09T09:41:35.583Z,101450.16
2023-05-09T09:44:14.241Z,101455.31
2023-05-09T09:46:56.648Z,101454.97
2023-05-09T09:49:25.657Z,101453.38
2023-05-09T09:51:59.373Z,101454.19
2023-05-09T09:54:28.104Z,101451.13
2023-05-09T09:56:56.774Z,101444.81
2023-05-09T09:59:26.176Z,101448.38
2023-05-09T10:01:54.632Z,101440.06
2023-05-09T10:04:22.027Z,101445.50
2023-05-09T10:06:57.482Z,101432.88
2023-05-09T10:09:25.566Z,101433.84
2023-05-09T10:11:53.630Z,101423.63
2023-05-09T10:14:24.181Z,101421.66
2023-05-09T10:16:58.723Z,101414.44
2023-05-09T10:19:27.531Z,101411.13
2023-05-09T10:21:57.027Z,101402.00
2023-05-09T10:24:35.625Z,101400.56
2023-05-09T10:27:07.080Z,101401.28
2023-05-09T10:29:41.613Z,101395.09
2023-05-09T10:32:31.551Z,101377.47
2023-05-09T10:35:04.840Z,101373.72
2023-05-09T10:37:33.542Z,101366.16
2023-05-09T10:40:05.251Z,101369.44
2023-05-09T10:42:32.720Z,101359.91
2023-05-09T10:44:59.947Z,101356.91
2023-05-09T10:47:28.233Z,101342.91
2023-05-09T10:49:56.108Z,101343.13
2023-05-09T10:52:23.817Z,101341.81
2023-05-09T10:55:01.865Z,101339.16
2023-05-09T10:57:30.473Z,101328.72
2023-05-09T10:59:58.430Z,101331.22
2023-05-09T11:02:29.588Z,101327.19
2023-05-09T11:05:19.430Z,101324.34
2023-05-09T11:07:46.542Z,101320.50
2023-05-09T11:10:18.554Z,101324.03
2023-05-09T11:12:59.659Z,101319.66
2023-05-09T11:15:30.088Z,101316.13
2023-05-09T11:20:35.913Z,101308.91
2023-05-09T11:23:07.043Z,101307.56
2023-05-09T11:25:34.079Z,101317.16
2023-05-09T11:28:02.124Z,101305.19
2023-05-09T11:30:40.029Z,101296.94
2023-05-09T11:33:07.388Z,101300.63
2023-05-09T11:35:38.735Z,101290.53
2023-05-09T11:38:06.845Z,101291.53
2023-05-09T11:40:35.012Z,101289.88
2023-05-09T11:43:02.235Z,101270.00
2023-05-09T11:45:31.243Z,101277.91
2023-05-09T11:47:59.129Z,101277.44
2023-05-09T11:50:26.462Z,101274.06
2023-05-09T11:52:54.431Z,101268.13
2023-05-09T11:55:23.115Z,101262.25
2023-05-09T11:57:52.697Z,101260.03
2023-05-09T12:00:25.018Z,101252.16
2023-05-09T12:02:53.565Z,101263.94
2023-05-09T12:05:23.057Z,101254.69
2023-05-09T12:07:50.359Z,101251.31
2023-05-09T12:10:20.280Z,101255.84
2023-05-09T12:12:49.043Z,101249.44
2023-05-09T12:15:17.684Z,101246.19
2023-05-09T12:17:48.158Z,101247.03
2023-05-09T12:20:16.649Z,101234.75
2023-05-09T12:22:44.143Z,101239.81
2023-05-09T12:25:12.408Z,101229.66
2023-05-09T12:27:41.217Z,101232.16
2023-05-09T12:30:10.994Z,101224.41
2023-05-09T12:32:40.590Z,101212.63
2023-05-09T12:35:09.759Z,101222.28
2023-05-09T12:37:36.973Z,101214.38
2023-05-09T12:40:13.066Z,101204.78
2023-05-09T12:42:44.660Z,101216.09
2023-05-09T12:45:12.240Z,101199.44
2023-05-09T12:47:39.552Z,101194.75
2023-05-09T12:50:08.373Z,101194.19
2023-05-09T12:52:41.732Z,101193.84
2023-05-09T12:55:19.153Z,101192.16
2023-05-09T12:57:58.306Z,101193.50
2023-05-09T13:00:25.648Z,101178.31
2023-05-09T13:02:53.123Z,101189.06
2023-05-09T13:05:22.315Z,101179.41
2023-05-09T13:07:52.520Z,101174.19
2023-05-09T13:10:24.109Z,101176.91
2023-05-09T13:12:51.889Z,101175.47
2023-05-09T13:15:21.008Z,101161.41
2023-05-09T13:17:49.205Z,101156.59
2023-05-09T13:20:17.341Z,101160.66
2023-05-09T13:22:45.558Z,101159.28
2023-05-09T13:25:13.150Z,101154.13
2023-05-09T13:27:40.134Z,101149.84
2023-05-09T13:30:07.943Z,101144.59
2023-05-09T13:32:36.869Z,101140.72
2023-05-09T13:35:09.639Z,101140.13
2023-05-09T13:37:36.656Z,101144.88
2023-05-09T13:40:04.446Z,101134.81
2023-05-09T13:42:34.468Z,101130.13
2023-05-09T13:45:01.547Z,101133.19
2023-05-09T13:47:28.804Z,101123.84
2023-05-09T13:49:55.799Z,101122.84
2023-05-09T13:52:23.360Z,101120.44
2023-05-09T13:54:50.367Z,101111.31
2023-05-09T13:57:17.289Z,101114.09
2023-05-09T13:59:44.341Z,101108.41
2023-05-09T14:02:11.768Z,101102.47
2023-05-09T14:04:39.350Z,101100.50
2023-05-09T14:07:07.138Z,101082.50
2023-05-09T14:09:40.283Z,101080.81
2023-05-09T14:12:07.409Z,101076.91
2023-05-09T14:14:34.405Z,101085.78
2023-05-09T14:17:01.659Z,101076.63
2023-05-09T14:19:33.184Z,101068.72
2023-05-09T14:22:00.159Z,101076.13
2023-05-09T14:24:30.921Z,101076.47
2023-05-09T14:26:58.020Z,101070.72
2023-05-09T14:29:25.031Z,101061.66
2023-05-09T14:31:52.166Z,101060.22
2023-05-09T14:34:19.472Z,101053.84
2023-05-09T14:36:46.513Z,101059.44
2023-05-09T14:39:13.511Z,101048.94
2023-05-09T14:41:40.560Z,101050.44
2023-05-09T14:44:07.580Z,101051.44
2023-05-09T14:46:34.657Z,101043.50
2023-05-09T14:49:04.385Z,101048.44
2023-05-09T14:51:31.975Z,101039.97
2023-05-09T14:53:59.505Z,101032.69
2023-05-09T14:56:26.993Z,101026.25
2023-05-09T14:58:53.988Z,101028.25
2023-05-09T15:01:21.551Z,101024.53
2023-05-09T15:03:48.516Z,101018.78
2023-05-09T15:06:15.750Z,101013.25
2023-05-09T15:08:42.868Z,101000.63
2023-05-09T15:11:09.852Z,101002.88
2023-05-09T15:13:37.001Z,101000.50
2023-05-09T15:16:05.210Z,100995.88
2023-05-09T15:18:33.718Z,100989.34
2023-05-09T15:21:01.078Z,100996.97
2023-05-09T15:23:28.123Z,100995.28
2023-05-09T15:25:55.297Z,100984.31
2023-05-09T15:28:22.528Z,100987.06
2023-05-09T15:30:49.641Z,100979.09
2023-05-09T15:33:16.594Z,100979.25
2023-05-09T15:35:44.331Z,100984.72
2023-05-09T15:38:12.465Z,100986.84
2023-05-09T15:40:41.250Z,100972.47
2023-05-09T15:43:08.585Z,100977.47
2023-05-09T15:45:37.531Z,100967.19
2023-05-09T15:48:04.945Z,100969.88
2023-05-09T15:50:31.952Z,100969.25
2023-05-09T15:52:58.926Z,100965.94
2023-05-09T15:55:28.034Z,100962.47
2023-05-09T15:57:55.842Z,100958.63
2023-05-09T16:00:23.045Z,100967.72
2023-05-09T16:02:50.497Z,100958.81
2023-05-09T16:05:17.899Z,100950.38
2023-05-09T16:07:47.037Z,100954.88
2023-05-09T16:10:14.337Z,100951.63
2023-05-09T16:12:41.516Z,100942.88
2023-05-09T16:15:08.969Z,100942.56
2023-05-09T16:17:35.969Z,100931.16
2023-05-09T16:20:03.038Z,100938.03
2023-05-09T16:22:30.215Z,100930.97
2023-05-09T16:24:57.219Z,100929.47
2023-05-09T16:27:24.225Z,100923.78
2023-05-09T16:29:51.237Z,100918.19
2023-05-09T16:32:18.318Z,100917.72
2023-05-09T16:34:45.270Z,100910.50
2023-05-09T16:37:12.585Z,100914.03
2023-05-09T16:39:39.587Z,100915.19
2023-05-09T16:42:06.685Z,100909.50
2023-05-09T16:44:33.704Z,100904.28
2023-05-09T16:47:01.286Z,100904.75
2023-05-09T16:49:28.620Z,100902.53
2023-05-09T16:51:55.652Z,100900.69
2023-05-09T16:54:23.428Z,100898.00
2023-05-09T16:56:50.431Z,100890.09
2023-05-09T16:59:17.693Z,100891.84
2023-05-09T17:01:44.654Z,100891.69
2023-05-09T17:04:11.798Z,100883.88
2023-05-09T17:06:38.862Z,100884.09
2023-05-09T17:09:05.963Z,100886.84
2023-05-09T17:11:33.621Z,100893.78
2023-05-09T17:14:02.611Z,100885.03
2023-05-09T17:16:29.805Z,100889.28
2023-05-09T17:18:56.830Z,100886.75
2023-05-09T17:21:23.840Z,100898.88
2023-05-09T17:23:53.981Z,100895.34
2023-05-09T17:26:21.577Z,100896.38
2023-05-09T17:28:49.095Z,100897.38
2023-05-09T17:31:16.165Z,100901.91
2023-05-09T17:33:43.857Z,100899.59
2023-05-09T17:36:10.894Z,100895.56
2023-05-09T17:38:38.079Z,100897.59
2023-05-09T17:41:05.105Z,100899.13
2023-05-09T17:43:32.143Z,100900.31
2023-05-09T17:45:59.369Z,100897.94
2023-05-09T17:48:26.391Z,100898.47
2023-05-09T17:50:53.573Z,100894.59
2023-05-09T17:53:20.664Z,100893.97
2023-05-09T17:55:47.978Z,100893.13
2023-05-09T17:58:15.309Z,100896.50
2023-05-09T18:00:42.444Z,100889.97
2023-05-09T18:03:09.486Z,100886.47
2023-05-09T18:05:36.524Z,100883.13
2023-05-09T18:08:03.777Z,100879.78
2023-05-09T18:10:30.780Z,100875.06
2023-05-09T18:12:57.818Z,100874.25
2023-05-09T18:15:25.706Z,100876.78
2023-05-09T18:17:53.970Z,100869.69
2023-05-09T18:20:21.275Z,100864.66
2023-05-09T18:22:48.283Z,100875.06
2023-05-09T18:25:15.308Z,100865.50
2023-05-09T18:27:42.242Z,100871.72
2023-05-09T18:30:09.617Z,100865.31
2023-05-09T18:32:36.603Z,100875.41
2023-05-09T18:35:04.268Z,100870.53
2023-05-09T18:37:31.307Z,100881.31
2023-05-09T18:39:58.300Z,100881.44
2023-05-09T18:42:25.379Z,100885.34
2023-05-09T18:44:52.559Z,100888.88
2023-05-09T18:47:19.602Z,100912.22
2023-05-09T18:49:47.703Z,100938.25
2023-05-09T18:52:15.327Z,100959.94
2023-05-09T18:54:42.391Z,100949.84
2023-05-09T18:57:10.124Z,100954.66
2023-05-09T18:59:37.726Z,100966.88
2023-05-09T19:02:04.805Z,100962.81
2023-05-09T19:04:31.888Z,100965.31
2023-05-09T19:06:59.688Z,100965.78
2023-05-09T19:09:26.946Z,100953.69
2023-05-09T19:11:54.218Z,100953.31
2023-05-09T19:14:21.162Z,100952.22
2023-05-09T19:16:48.370Z,100949.19
2023-05-09T19:19:15.924Z,100957.88
2023-05-09T19:21:43.190Z,100964.03
2023-05-09T19:24:10.298Z,100952.91
2023-05-09T19:26:37.266Z,100960.47
2023-05-09T19:29:08.230Z,100963.16
2023-05-09T19:31:37.666Z,100955.81
2023-05-09T19:34:04.659Z,100955.59
2023-05-09T19:36:31.729Z,100957.53
2023-05-09T19:38:58.828Z,100951.34
2023-05-09T19:41:26.165Z,100953.88
2023-05-09T19:43:53.547Z,100949.19
2023-05-09T19:46:22.445Z,100951.03
2023-05-09T19:48:49.536Z,100941.78
2023-05-09T19:51:16.594Z,100944.09
2023-05-09T19:53:43.661Z,100935.03
2023-05-09T19:56:10.830Z,100938.25
2023-05-09T19:58:37.890Z,100938.41
2023-05-09T20:01:06.863Z,100941.88
2023-05-09T20:03:37.107Z,100945.41
2023-05-09T20:06:04.467Z,100947.25
2023-05-09T20:08:31.428Z,100945.25
2023-05-09T20:11:00.255Z,100944.56
2023-05-09T20:13:27.861Z,100949.56
2023-05-09T20:15:55.397Z,100938.94
2023-05-09T20:18:22.383Z,100943.16
2023-05-09T20:20:49.391Z,100949.19
2023-05-09T20:23:16.394Z,100947.50
2023-05-09T20:25:43.368Z,100944.75
2023-05-09T20:28:12.032Z,100941.34
2023-05-09T20:30:39.044Z,100937.63
2023-05-09T20:33:06.090Z,100943.75
2023-05-09T20:35:33.198Z,100938.03
2023-05-09T20:38:00.166Z,100935.19
2023-05-09T20:40:27.133Z,100929.69
2023-05-09T20:42:54.220Z,100936.50
2023-05-09T20:45:21.344Z,100929.94
2023-05-09T20:47:48.402Z,100928.06
2023-05-09T20:50:15.692Z,100930.09
2023-05-09T20:52:42.869Z,100921.13
2023-05-09T20:55:10.003Z,100919.91
2023-05-09T20:57:36.979Z,100919.13
2023-05-09T21:00:04.282Z,100913.22
2023-05-09T21:02:31.391Z,100916.56
2023-05-09T21:04:58.420Z,100912.16
2023-05-09T21:07:25.433Z,100907.72
2023-05-09T21:09:54.187Z,100904.00
2023-05-09T21:12:21.269Z,100905.00
2023-05-09T21:14:49.165Z,100904.13
2023-05-09T21:17:16.392Z,100901.78
2023-05-09T21:19:43.522Z,100894.22
2023-05-09T21:22:10.489Z,100908.16
2023-05-09T21:24:37.535Z,100901.47
2023-05-09T21:27:04.995Z,100887.63
2023-05-09T21:29:31.961Z,100896.19
2023-05-09T21:31:58.915Z,100894.81
2023-05-09T21:34:25.981Z,100890.47
2023-05-09T21:36:52.990Z,100887.03
2023-05-09T21:39:19.916Z,100883.09
2023-05-09T21:41:46.877Z,100874.78
2023-05-09T21:44:13.946Z,100878.94
2023-05-09T21:46:41.425Z,100872.63
2023-05-09T21:49:08.427Z,100872.25
2023-05-09T21:51:35.387Z,100867.75
2023-05-09T21:54:02.451Z,100873.41
2023-05-09T21:56:29.778Z,100875.19
2023-05-09T21:58:56.798Z,100870.22
2023-05-09T22:01:23.874Z,100863.97
2023-05-09T22:03:51.842Z,100868.22
2023-05-09T22:06:18.891Z,100861.41
2023-05-09T22:08:45.911Z,100861.44
2023-05-09T22:11:14.788Z,100854.53
2023-05-09T22:13:42.649Z,100851.84
2023-05-09T22:16:09.893Z,100851.25
2023-05-09T22:18:37.321Z,100854.94
2023-05-09T22:21:04.552Z,100857.13
2023-05-09T22:23:31.599Z,100848.19
2023-05-09T22:25:58.552Z,100849.03
2023-05-09T22:28:25.609Z,100847.66
2023-05-09T22:30:52.622Z,100844.06
2023-05-09T22:33:20.380Z,100846.56
2023-05-09T22:35:47.469Z,100843.47
2023-05-09T22:38:14.597Z,100844.06
2023-05-09T22:40:41.631Z,100838.94
2023-05-09T22:43:10.639Z,100845.66
2023-05-09T22:45:37.924Z,100836.78
2023-05-09T22:48:05.360Z,100832.75
2023-05-09T22:50:32.493Z,100836.44
2023-05-09T22:53:00.489Z,100835.03
2023-05-09T22:55:27.752Z,100833.59
2023-05-09T22:57:54.715Z,100834.13
2023-05-09T23:00:21.999Z,100827.00
2023-05-09T23:02:49.164Z,100832.28
2023-05-09T23:05:16.266Z,100833.34
2023-05-09T23:07:43.263Z,100831.34
2023-05-09T23:10:10.526Z,100834.66
2023-05-09T23:12:38.291Z,100825.34
2023-05-09T23:15:07.527Z,100826.34
2023-05-09T23:17:34.677Z,100824.63
2023-05-09T23:20:01.788Z,100817.31
2023-05-09T23:22:29.075Z,100810.09
2023-05-09T23:24:56.274Z,100807.59
2023-05-09T23:27:23.561Z,100801.41
2023-05-09T23:29:50.618Z,100800.19
2023-05-09T23:32:17.575Z,100797.13
2023-05-09T23:34:44.596Z,100797.13
2023-05-09T23:37:12.110Z,100790.25
2023-05-09T23:39:39.061Z,100790.41
2023-05-09T23:42:06.178Z,100794.09
2023-05-09T23:44:33.332Z,100786.84
2023-05-09T23:47:02.097Z,100783.88
2023-05-09T23:49:29.220Z,100785.22
2023-05-09T23:51:56.346Z,100785.72
2023-05-09T23:54:24.552Z,100786.91
2023-05-09T23:56:51.593Z,100787.16
2023-05-09T23:59:18.570Z,100778.94
